Decoded Metar for VGHS ( in ) (IATA:) | Meteo·Mobile Aviation Weather
aviador You're here:

VGHS Decoded Metar

in
Report Time2020-02-18 23:00:00
UTC Time2020-02-18 23:11:22
Flight Rules ifr IFR
WindCalm
Visibility2800 m
Phenomena:Mist
Clouds:N/A
Expected CloudBase > 1,200 ft AGL from Temp-Dew spread
CeilingNone
Temp18°C
Dew Point15°C (83% RH)
QNH1015 hPa
Raw Report
METAR VGHS 182300Z 00000KT 2800 BR NSC 18/15 Q1015 TEMPO S/VIS
2500M=

Extra information for VGHS:More info

Social comments